Laranjeiras do Sul, Brazil
Current Conditions -  °F | °C
As of 4:00 PM on Tuesday 27 Jan 2015 (Local Time) from SBCA Reporting Station
Broken Clouds Broken Clouds  
Wind Chill: 81°   Ceiling: 4000
Heat Index: 81°   Visibility: 6mi
Dew Point: 61°   Wind: 18mph
Humidity: 51%   Direction: 360°N
Pressure: 29.94"   Gusts: NA
Location:  25.41°S, 52.42°W
Report Text: SBCA 271800Z 36016KT 9999 BKN040 27/16 Q1014
Loading
Personal Weather Stations






























Interactive Weather Map New forecast layout! Learn more

10-Day Weather Forecast

Advertisements
Track Severe Weather on mobile